Vinalhaven, Maine
Current Conditions -  °F | °C
As of 2:15 AM on Saturday 25 Oct 2014 (Local Time) from KRKD Reporting Station
Broken Clouds Broken Clouds  
Wind Chill: 42°   Ceiling: 4400
Heat Index: 45°   Visibility: 10mi
Dew Point: 43°   Wind: 5mph
Humidity: 93%   Direction: 270°W
Pressure: 29.66"   Gusts: NA
Location:  44.05°N, 68.82°W
Report Text: KRKD 250615Z AUTO 27004KT 10SM BKN044 BKN050 07/06 A2966 RMK AO1
Loading
Personal Weather Stations






























Interactive Weather Map
Tropical Storm Tracking
New forecast layout! Learn more

10-Day Weather Forecast

Advertisements
Track Severe Weather on mobile